Time;durP1;ratioP1;P1;durP2;ratioP2;P2;SDS_P1;SDS_P2;PMS_P1;PMS_P2;Temp;Humidity;BMP_temperature;BMP_pressure;BME280_temperature;BME280_humidity;BME280_pressure;Samples;Min_cycle;Max_cycle;Signal;HPM_P1;HPM_P2
2022/01/06 00:02:02;;;;;;;;;;;;;;;9.28;44.83;98783.75;4475257;31;33471;-73
2022/01/06 00:04:30;;;;;;;;;;;;;;;9.68;41.28;98780.31;4466982;32;33512;-72
2022/01/06 00:06:57;;;;;;;;;;;;;;;10.00;41.32;98782.03;4465856;32;34232;-71
2022/01/06 00:09:24;;;;;;;;;;;;;;;9.99;39.51;98786.53;4466174;32;35410;-71
2022/01/06 00:11:52;;;;;;;;;;;;;;;9.85;40.59;98786.03;4470063;32;35299;-71
2022/01/06 00:15:01;;;;;;;;;;;;;;;10.14;40.39;98787.00;4471291;32;33324;-69
2022/01/06 00:17:39;;;;;;;;;;;;;;;10.37;40.14;98782.34;4469068;32;33989;-68
2022/01/06 00:25:35;;;;;;;;;;;;;;;10.02;41.05;98769.38;4469487;32;33481;-68
2022/01/06 00:28:03;;;;;;;;;;;;;;;9.45;41.20;98774.28;4475468;32;35461;-69
2022/01/06 00:30:30;;;;;;;;;;;;;;;9.03;43.12;98778.78;4464959;32;35076;-67
2022/01/06 00:32:57;;;;;;;;;;;;;;;8.95;45.81;98781.22;4468764;32;34471;-67
2022/01/06 00:35:25;;;;;;;;;;;;;;;9.01;41.88;98767.38;4467897;31;33739;-69
2022/01/06 00:37:52;;;;;;;;;;;;;;;9.08;43.21;98756.06;4440857;32;943606;-67
2022/01/06 00:40:20;;;;;;;;;;;;;;;9.21;42.85;98760.34;4473225;32;35459;-68
2022/01/06 00:42:47;;;;;;;;;;;;;;;9.71;40.65;98755.16;4467016;32;34097;-70
2022/01/06 00:45:14;;;;;;;;;;;;;;;9.71;42.19;98741.81;4465493;32;33248;-70
2022/01/06 00:47:44;;;;;;;;;;;;;;;9.98;40.59;98734.06;4468246;32;34210;-69
2022/01/06 00:50:12;;;;;;;;;;;;;;;8.97;42.65;98728.56;4466500;31;35327;-70
2022/01/06 00:52:39;;;;;;;;;;;;;;;9.24;43.56;98725.38;4473678;32;33088;-71
2022/01/06 00:55:07;;;;;;;;;;;;;;;9.32;44.54;98717.56;4472315;32;34143;-67
2022/01/06 00:57:34;;;;;;;;;;;;;;;9.06;42.76;98707.28;4474753;31;34168;-72
2022/01/06 01:00:03;;;;;;;;;;;;;;;8.84;46.07;98704.75;4465559;32;34327;-72
2022/01/06 01:02:30;;;;;;;;;;;;;;;9.23;42.19;98708.50;4465969;32;34412;-68
2022/01/06 01:04:57;;;;;;;;;;;;;;;9.72;42.34;98701.56;4465883;32;33702;-68
2022/01/06 01:07:25;;;;;;;;;;;;;;;9.73;41.05;98697.94;4464523;32;33991;-69
2022/01/06 01:09:52;;;;;;;;;;;;;;;9.30;42.19;98692.81;4475344;32;32794;-68
2022/01/06 01:12:22;;;;;;;;;;;;;;;9.74;40.64;98698.78;4467169;32;34584;-68
2022/01/06 01:14:59;;;;;;;;;;;;;;;9.29;41.49;98699.13;4467067;32;33298;-69
2022/01/06 01:17:27;;;;;;;;;;;;;;;9.52;42.08;98703.31;4463969;32;34403;-71
2022/01/06 01:19:54;;;;;;;;;;;;;;;9.10;42.11;98721.22;4467534;32;34372;-72
2022/01/06 01:22:22;;;;;;;;;;;;;;;9.47;43.35;98713.59;4465964;32;35844;-72
2022/01/06 01:24:49;;;;;;;;;;;;;;;9.34;42.07;98704.91;4465626;32;31831;-73
2022/01/06 01:27:21;;;;;;;;;;;;;;;8.91;42.79;98711.25;4471708;32;34046;-70
2022/01/06 01:30:03;;;;;;;;;;;;;;;9.47;43.14;98713.59;4464045;32;33805;-73
2022/01/06 01:32:34;;;;;;;;;;;;;;;9.23;44.54;98735.22;4474063;32;34424;-70
2022/01/06 01:35:07;;;;;;;;;;;;;;;9.17;43.55;98741.06;4472736;32;33762;-74
2022/01/06 01:37:35;;;;;;;;;;;;;;;8.59;44.39;98738.78;4470199;32;34057;-70
2022/01/06 01:40:03;;;;;;;;;;;;;;;9.29;43.66;98747.19;4470481;32;34298;-70
2022/01/06 01:42:30;;;;;;;;;;;;;;;9.32;43.33;98742.44;4471246;32;33117;-71
2022/01/06 01:44:58;;;;;;;;;;;;;;;8.88;45.76;98735.53;4467526;32;33415;-68
2022/01/06 01:47:45;;;;;;;;;;;;;;;8.90;44.15;98724.75;4470359;32;34904;-69
2022/01/06 01:50:15;;;;;;;;;;;;;;;9.30;42.80;98722.19;4474156;32;34416;-72
2022/01/06 01:52:44;;;;;;;;;;;;;;;8.90;43.78;98700.72;4477633;32;33577;-73
2022/01/06 01:55:16;;;;;;;;;;;;;;;9.26;45.00;98700.25;4470241;32;33022;-75
2022/01/06 01:57:44;;;;;;;;;;;;;;;9.37;42.56;98709.16;4474339;32;34022;-71
2022/01/06 02:00:11;;;;;;;;;;;;;;;9.74;42.54;98720.16;4469632;32;34403;-73
2022/01/06 02:02:39;;;;;;;;;;;;;;;9.14;43.41;98711.13;4479976;32;34847;-72
2022/01/06 02:05:07;;;;;;;;;;;;;;;9.24;44.04;98712.03;4468493;32;32929;-71
2022/01/06 02:07:35;;;;;;;;;;;;;;;8.92;44.92;98718.28;4473086;32;34184;-74
2022/01/06 02:10:04;;;;;;;;;;;;;;;9.17;44.26;98735.72;4472543;32;35251;-75
2022/01/06 02:12:36;;;;;;;;;;;;;;;9.28;43.24;98738.34;4477210;32;35003;-74
2022/01/06 02:15:06;;;;;;;;;;;;;;;8.60;44.25;98752.97;4473365;32;33572;-72
2022/01/06 02:17:34;;;;;;;;;;;;;;;9.00;43.66;98747.84;4479708;32;34136;-75
2022/01/06 02:20:03;;;;;;;;;;;;;;;8.77;44.59;98746.25;4477034;32;35243;-70
2022/01/06 02:22:30;;;;;;;;;;;;;;;9.00;43.93;98742.50;4467283;32;34288;-73
2022/01/06 02:25:07;;;;;;;;;;;;;;;9.20;43.95;98738.16;4473357;32;34335;-72
2022/01/06 02:27:34;;;;;;;;;;;;;;;8.90;42.99;98730.06;4478781;32;34938;-70
2022/01/06 02:30:02;;;;;;;;;;;;;;;9.26;43.18;98716.25;4481423;32;34569;-69
2022/01/06 02:32:29;;;;;;;;;;;;;;;8.68;44.88;98704.34;4478769;32;33791;-72
2022/01/06 02:34:57;;;;;;;;;;;;;;;8.97;44.81;98684.06;4465797;32;34651;-70
2022/01/06 02:37:24;;;;;;;;;;;;;;;9.18;42.83;98685.84;4479024;32;32783;-73
2022/01/06 02:39:51;;;;;;;;;;;;;;;8.92;45.70;98686.25;4479330;31;34315;-71
2022/01/06 02:42:19;;;;;;;;;;;;;;;8.62;45.99;98695.88;4471973;32;34472;-72
2022/01/06 02:44:46;;;;;;;;;;;;;;;9.42;42.13;98686.41;4472209;32;34729;-71
2022/01/06 02:47:14;;;;;;;;;;;;;;;9.05;43.72;98688.72;4468341;32;33763;-71
2022/01/06 02:49:41;;;;;;;;;;;;;;;8.59;45.60;98685.44;4474472;31;33037;-70
2022/01/06 02:52:09;;;;;;;;;;;;;;;8.89;46.26;98699.84;4465741;32;35311;-70
2022/01/06 02:54:36;;;;;;;;;;;;;;;8.54;44.34;98713.47;4465724;32;32908;-69
2022/01/06 02:57:04;;;;;;;;;;;;;;;8.56;46.76;98731.03;4468742;31;33916;-71
2022/01/06 02:59:31;;;;;;;;;;;;;;;8.66;44.14;98739.12;4474815;32;34968;-71
2022/01/06 03:01:59;;;;;;;;;;;;;;;8.87;44.08;98749.84;4469967;31;34551;-70
2022/01/06 03:04:26;;;;;;;;;;;;;;;9.03;43.24;98752.09;4462364;32;33183;-74
2022/01/06 03:06:54;;;;;;;;;;;;;;;8.45;46.37;98767.59;4451109;32;33816;-73
2022/01/06 03:09:26;;;;;;;;;;;;;;;8.16;47.69;98778.75;4473420;32;34418;-70
2022/01/06 03:11:54;;;;;;;;;;;;;;;8.07;46.78;98764.34;4471101;31;34558;-70
2022/01/06 03:14:21;;;;;;;;;;;;;;;8.26;45.17;98778.84;4465075;32;34540;-71
2022/01/06 03:16:51;;;;;;;;;;;;;;;8.25;46.03;98774.47;4464623;32;33907;-73
2022/01/06 03:19:18;;;;;;;;;;;;;;;8.94;44.15;98774.19;4472238;32;34078;-70
2022/01/06 03:21:46;;;;;;;;;;;;;;;8.67;44.66;98788.00;4474225;32;33295;-71
2022/01/06 03:24:13;;;;;;;;;;;;;;;8.06;46.68;98791.97;4469227;31;33576;-72
2022/01/06 03:26:40;;;;;;;;;;;;;;;8.48;47.22;98778.00;4465117;32;34197;-71
2022/01/06 03:29:08;;;;;;;;;;;;;;;8.15;46.94;98772.56;4463333;32;34205;-73
2022/01/06 03:31:35;;;;;;;;;;;;;;;9.26;44.03;98775.00;4470654;32;34509;-72
2022/01/06 03:34:02;;;;;;;;;;;;;;;8.52;46.54;98784.78;4472866;32;33664;-73
2022/01/06 03:36:30;;;;;;;;;;;;;;;8.66;46.78;98787.16;4470546;32;34319;-70
2022/01/06 03:38:57;;;;;;;;;;;;;;;9.30;43.43;98784.44;4477974;31;33216;-73
2022/01/06 03:41:24;;;;;;;;;;;;;;;8.48;45.69;98786.84;4468464;32;32747;-70
2022/01/06 03:43:52;;;;;;;;;;;;;;;8.79;45.11;98798.50;4476208;31;33558;-72
2022/01/06 03:46:19;;;;;;;;;;;;;;;8.72;43.72;98799.16;4471274;32;35072;-70
2022/01/06 03:48:47;;;;;;;;;;;;;;;8.74;44.10;98800.72;4467176;32;34198;-69
2022/01/06 03:51:14;;;;;;;;;;;;;;;9.24;44.45;98808.16;4471993;32;34590;-71
2022/01/06 03:53:42;;;;;;;;;;;;;;;9.34;43.54;98806.38;4468884;32;33769;-70
2022/01/06 03:56:09;;;;;;;;;;;;;;;8.93;43.93;98804.53;4468504;32;32583;-69
2022/01/06 03:58:39;;;;;;;;;;;;;;;9.44;42.17;98812.66;4479096;32;34124;-70
2022/01/06 04:01:07;;;;;;;;;;;;;;;9.35;43.56;98821.47;4478220;31;33408;-69
2022/01/06 04:03:35;;;;;;;;;;;;;;;9.41;42.54;98807.59;4475123;32;33601;-70
2022/01/06 04:06:03;;;;;;;;;;;;;;;9.55;42.90;98804.56;4469254;32;34243;-70
2022/01/06 04:08:30;;;;;;;;;;;;;;;8.99;46.76;98798.66;4464691;32;34186;-73
2022/01/06 04:10:57;;;;;;;;;;;;;;;8.99;45.55;98798.66;4465430;32;34361;-71
2022/01/06 04:13:25;;;;;;;;;;;;;;;9.16;44.65;98797.28;4463494;32;33444;-70
2022/01/06 04:15:52;;;;;;;;;;;;;;;9.35;43.48;98805.44;4465022;32;32962;-73
2022/01/06 04:18:19;;;;;;;;;;;;;;;9.93;41.20;98799.59;4476068;31;34315;-71
2022/01/06 04:20:47;;;;;;;;;;;;;;;9.66;41.78;98797.47;4473284;32;35326;-69
2022/01/06 04:23:14;;;;;;;;;;;;;;;9.83;42.47;98799.53;4471831;32;34380;-69
2022/01/06 04:25:42;;;;;;;;;;;;;;;9.93;40.86;98797.75;4465477;32;35169;-72
2022/01/06 04:28:09;;;;;;;;;;;;;;;9.83;42.77;98801.38;4471103;32;34227;-69
2022/01/06 04:30:36;;;;;;;;;;;;;;;10.02;42.13;98798.78;4472203;32;35636;-70
2022/01/06 04:33:04;;;;;;;;;;;;;;;9.87;42.81;98797.44;4472640;31;34049;-71
2022/01/06 04:35:31;;;;;;;;;;;;;;;10.37;39.87;98795.72;4472900;32;32106;-70
2022/01/06 04:37:58;;;;;;;;;;;;;;;9.26;42.49;98806.22;4475289;32;34130;-70
2022/01/06 04:40:26;;;;;;;;;;;;;;;9.34;41.51;98798.38;4463969;32;33042;-71
2022/01/06 04:42:53;;;;;;;;;;;;;;;9.12;42.48;98809.16;4466447;32;33046;-70
2022/01/06 04:45:20;;;;;;;;;;;;;;;9.13;42.79;98810.88;4467860;32;34127;-69
2022/01/06 04:47:48;;;;;;;;;;;;;;;9.28;42.80;98810.44;4472838;32;34050;-70
2022/01/06 04:50:15;;;;;;;;;;;;;;;8.77;42.54;98821.81;4465278;32;34576;-72
2022/01/06 04:52:42;;;;;;;;;;;;;;;8.66;42.92;98823.66;4463658;32;33989;-71
2022/01/06 04:55:10;;;;;;;;;;;;;;;8.51;43.22;98834.59;4467916;32;33991;-72
2022/01/06 04:57:38;;;;;;;;;;;;;;;9.02;42.54;98838.44;4474101;32;34138;-71
2022/01/06 05:00:05;;;;;;;;;;;;;;;9.01;42.20;98844.78;4473779;31;34239;-72
2022/01/06 05:02:33;;;;;;;;;;;;;;;8.46;45.49;98849.28;4479838;32;32550;-69
2022/01/06 05:05:00;;;;;;;;;;;;;;;9.15;43.09;98859.63;4474914;32;34295;-70
2022/01/06 05:07:27;;;;;;;;;;;;;;;8.95;42.30;98854.12;4474808;31;35403;-71
2022/01/06 05:09:55;;;;;;;;;;;;;;;8.95;42.31;98862.12;4477235;32;34116;-71
2022/01/06 05:12:22;;;;;;;;;;;;;;;9.20;46.27;98860.97;4470703;32;33372;-70
2022/01/06 05:14:50;;;;;;;;;;;;;;;9.35;43.69;98858.84;4472157;32;35297;-72
2022/01/06 05:17:19;;;;;;;;;;;;;;;9.78;41.38;98864.06;4472451;31;34793;-70
2022/01/06 05:19:46;;;;;;;;;;;;;;;8.79;44.19;98867.88;4474352;32;33386;-73
2022/01/06 05:22:13;;;;;;;;;;;;;;;9.54;41.69;98868.84;4473351;31;34534;-73
2022/01/06 05:24:41;;;;;;;;;;;;;;;9.07;42.87;98877.16;4473567;32;33918;-70
2022/01/06 05:27:10;;;;;;;;;;;;;;;9.68;42.33;98881.00;4475888;32;34151;-70
2022/01/06 05:29:38;;;;;;;;;;;;;;;9.23;44.31;98874.06;4474880;32;34467;-70
2022/01/06 05:32:05;;;;;;;;;;;;;;;9.21;41.82;98883.16;4474772;32;33886;-70
2022/01/06 05:34:33;;;;;;;;;;;;;;;8.92;44.76;98881.06;4474634;32;34027;-72
2022/01/06 05:37:00;;;;;;;;;;;;;;;8.76;46.25;98877.94;4473209;32;33980;-71
2022/01/06 05:39:28;;;;;;;;;;;;;;;9.05;44.62;98880.91;4470576;32;35089;-72
2022/01/06 05:41:55;;;;;;;;;;;;;;;9.36;43.06;98881.06;4478711;32;32935;-73
2022/01/06 05:44:24;;;;;;;;;;;;;;;9.64;41.49;98879.59;4473253;31;33579;-72
2022/01/06 05:46:51;;;;;;;;;;;;;;;9.21;42.64;98877.81;4474107;32;34070;-72
2022/01/06 05:49:18;;;;;;;;;;;;;;;8.94;43.18;98875.63;4472838;31;34445;-70
2022/01/06 05:51:46;;;;;;;;;;;;;;;8.83;43.60;98884.50;4466402;32;34750;-72
2022/01/06 05:54:13;;;;;;;;;;;;;;;9.33;42.51;98883.00;4466756;32;35120;-74
2022/01/06 05:56:40;;;;;;;;;;;;;;;8.39;44.87;98884.44;4465857;32;34164;-70
2022/01/06 05:59:08;;;;;;;;;;;;;;;8.19;45.55;98876.28;4474029;32;34125;-73
2022/01/06 06:01:35;;;;;;;;;;;;;;;8.45;45.29;98874.25;4470631;31;35017;-71
2022/01/06 06:04:03;;;;;;;;;;;;;;;8.26;46.61;98882.84;4476302;32;34072;-69
2022/01/06 06:06:30;;;;;;;;;;;;;;;7.79;46.66;98895.37;4464652;32;33195;-71
2022/01/06 06:08:58;;;;;;;;;;;;;;;7.14;49.85;98878.09;4470070;32;34425;-69
2022/01/06 06:11:25;;;;;;;;;;;;;;;7.30;48.59;98886.63;4473821;31;31956;-72
2022/01/06 06:13:53;;;;;;;;;;;;;;;7.10;49.43;98877.47;4475165;32;34087;-70
2022/01/06 06:16:20;;;;;;;;;;;;;;;6.68;48.88;98884.97;4473669;31;34139;-71
2022/01/06 06:18:47;;;;;;;;;;;;;;;6.85;49.18;98883.75;4473577;32;35185;-70
2022/01/06 06:21:15;;;;;;;;;;;;;;;7.12;49.04;98883.50;4473163;32;33341;-71
2022/01/06 06:23:42;;;;;;;;;;;;;;;6.71;51.14;98886.56;4474769;32;33930;-72
2022/01/06 06:26:11;;;;;;;;;;;;;;;7.09;49.35;98904.19;4468939;32;34271;-70
2022/01/06 06:28:38;;;;;;;;;;;;;;;7.00;48.88;98887.09;4474389;32;33260;-69
2022/01/06 06:31:06;;;;;;;;;;;;;;;6.87;49.14;98888.94;4469318;32;32161;-71
2022/01/06 06:33:33;;;;;;;;;;;;;;;6.59;49.70;98898.94;4465893;32;34302;-70
2022/01/06 06:36:00;;;;;;;;;;;;;;;6.81;50.56;98910.69;4477942;32;35777;-70
2022/01/06 06:38:28;;;;;;;;;;;;;;;6.76;50.00;98919.81;4476122;31;34253;-71
2022/01/06 06:40:55;;;;;;;;;;;;;;;6.63;50.54;98921.69;4469615;32;33256;-70
2022/01/06 06:43:23;;;;;;;;;;;;;;;7.15;50.59;98925.84;4470365;32;33587;-70
2022/01/06 06:45:50;;;;;;;;;;;;;;;6.82;49.33;98918.53;4471809;32;34258;-68
2022/01/06 06:48:18;;;;;;;;;;;;;;;6.34;50.29;98938.84;4474288;32;34229;-69
2022/01/06 06:50:45;;;;;;;;;;;;;;;6.42;52.13;98931.16;4470901;31;33700;-69
2022/01/06 06:53:12;;;;;;;;;;;;;;;6.45;53.45;98946.91;4468684;32;34208;-69
2022/01/06 06:55:40;;;;;;;;;;;;;;;6.82;50.15;98938.97;4471779;32;34102;-70
2022/01/06 06:58:07;;;;;;;;;;;;;;;6.52;51.23;98953.50;4473574;32;35023;-70
2022/01/06 07:00:34;;;;;;;;;;;;;;;6.85;51.40;98957.37;4471751;31;33568;-70
2022/01/06 07:03:02;;;;;;;;;;;;;;;7.32;50.35;98969.00;4470253;32;32927;-72
2022/01/06 07:05:29;;;;;;;;;;;;;;;7.26;48.68;98969.50;4471663;32;34690;-68
2022/01/06 07:07:57;;;;;;;;;;;;;;;7.49;47.95;98979.28;4466145;32;35326;-70
2022/01/06 07:10:25;;;;;;;;;;;;;;;7.92;48.24;98981.38;4465259;32;33787;-72
2022/01/06 07:12:52;;;;;;;;;;;;;;;7.76;49.32;98981.69;4467098;32;33667;-70
2022/01/06 07:15:19;;;;;;;;;;;;;;;7.35;50.08;98980.31;4472314;32;34134;-69
2022/01/06 07:17:47;;;;;;;;;;;;;;;8.10;47.01;98982.66;4463075;32;35113;-72
2022/01/06 07:20:14;;;;;;;;;;;;;;;8.65;46.20;98990.03;4473088;32;32500;-73
2022/01/06 07:22:41;;;;;;;;;;;;;;;8.13;47.12;98992.22;4469802;31;34163;-71
2022/01/06 07:25:09;;;;;;;;;;;;;;;8.19;46.42;98999.75;4469559;32;34321;-70
2022/01/06 07:27:36;;;;;;;;;;;;;;;8.06;48.23;99005.19;4472342;31;34274;-71
2022/01/06 07:30:04;;;;;;;;;;;;;;;7.65;47.35;99009.13;4473210;32;33635;-70
2022/01/06 07:32:32;;;;;;;;;;;;;;;8.03;47.25;99017.87;4469738;32;32966;-70
2022/01/06 07:34:59;;;;;;;;;;;;;;;8.21;46.11;99016.47;4471829;32;35805;-71
2022/01/06 07:37:27;;;;;;;;;;;;;;;8.25;48.09;99017.94;4465167;32;34443;-71
2022/01/06 07:39:55;;;;;;;;;;;;;;;8.86;45.04;99018.53;4465021;32;33679;-71
2022/01/06 07:42:22;;;;;;;;;;;;;;;8.07;46.19;99028.19;4471234;32;35245;-72
2022/01/06 07:44:50;;;;;;;;;;;;;;;7.87;47.80;99034.19;4472460;32;32974;-70
2022/01/06 07:47:18;;;;;;;;;;;;;;;8.14;47.32;99045.41;4467635;32;34281;-70
2022/01/06 07:49:46;;;;;;;;;;;;;;;8.90;44.88;99048.50;4471785;31;35236;-70
2022/01/06 07:52:13;;;;;;;;;;;;;;;8.47;47.83;99049.16;4473200;32;34179;-73
2022/01/06 07:54:42;;;;;;;;;;;;;;;8.35;48.32;99055.41;4469570;31;34370;-71
2022/01/06 07:57:09;;;;;;;;;;;;;;;9.21;43.99;99067.41;4473187;32;34408;-71
2022/01/06 07:59:36;;;;;;;;;;;;;;;9.18;46.82;99060.50;4467032;32;32387;-71
2022/01/06 08:02:05;;;;;;;;;;;;;;;9.29;45.43;99067.66;4468248;32;34970;-74
2022/01/06 08:04:32;;;;;;;;;;;;;;;10.14;42.49;99070.44;4474293;32;34285;-72
2022/01/06 08:07:01;;;;;;;;;;;;;;;10.17;42.20;99080.03;4468845;32;34354;-71
2022/01/06 08:09:28;;;;;;;;;;;;;;;10.25;42.70;99075.75;4477742;32;33569;-69
2022/01/06 08:11:55;;;;;;;;;;;;;;;10.63;41.33;99081.53;4471223;31;33871;-68
2022/01/06 08:14:23;;;;;;;;;;;;;;;10.60;41.95;99084.47;4475337;32;32524;-70
2022/01/06 08:16:50;;;;;;;;;;;;;;;11.25;40.69;99085.94;4472670;31;35277;-70
2022/01/06 08:19:18;;;;;;;;;;;;;;;11.28;40.52;99084.81;4467754;32;33712;-71
2022/01/06 08:21:45;;;;;;;;;;;;;;;11.11;39.87;99078.28;4463844;32;34267;-73
2022/01/06 08:24:13;;;;;;;;;;;;;;;11.66;39.23;99087.63;4472200;32;34043;-73
2022/01/06 08:26:40;;;;;;;;;;;;;;;11.80;40.51;99081.00;4472467;32;35218;-71
2022/01/06 08:29:08;;;;;;;;;;;;;;;12.32;37.72;99095.03;4475909;31;33283;-73
2022/01/06 08:31:35;;;;;;;;;;;;;;;12.33;37.72;99090.56;4466492;32;35217;-72
2022/01/06 08:34:03;;;;;;;;;;;;;;;12.58;37.14;99102.50;4465156;32;35100;-72
2022/01/06 08:36:30;;;;;;;;;;;;;;;12.10;38.37;99114.09;4471233;32;33101;-72
2022/01/06 08:38:57;;;;;;;;;;;;;;;12.57;37.73;99123.16;4471099;32;34910;-72
2022/01/06 08:41:25;;;;;;;;;;;;;;;12.96;36.41;99123.09;4468608;32;34076;-70
2022/01/06 08:43:52;;;;;;;;;;;;;;;12.85;36.39;99130.47;4475785;31;33137;-71
2022/01/06 08:46:20;;;;;;;;;;;;;;;13.33;36.08;99126.84;4468358;32;35348;-71
2022/01/06 08:48:47;;;;;;;;;;;;;;;12.42;37.09;99134.44;4469152;32;34336;-70
2022/01/06 08:51:15;;;;;;;;;;;;;;;12.77;36.77;99134.72;4476192;32;34530;-72
2022/01/06 08:53:42;;;;;;;;;;;;;;;12.21;37.48;99126.56;4473576;32;35315;-71
2022/01/06 08:56:10;;;;;;;;;;;;;;;13.09;36.09;99138.88;4466592;32;35415;-70
2022/01/06 08:58:37;;;;;;;;;;;;;;;12.75;36.33;99142.09;4470271;32;33580;-71
2022/01/06 09:01:04;;;;;;;;;;;;;;;12.54;36.19;99131.50;4473857;31;33948;-72
2022/01/06 09:03:32;;;;;;;;;;;;;;;12.52;38.11;99138.84;4469325;32;33439;-71
2022/01/06 09:06:00;;;;;;;;;;;;;;;12.92;36.47;99142.34;4470320;32;34103;-71
2022/01/06 09:08:27;;;;;;;;;;;;;;;12.67;36.53;99146.47;4472443;32;31891;-70
2022/01/06 09:10:55;;;;;;;;;;;;;;;13.13;35.91;99140.31;4470624;32;34142;-72
2022/01/06 09:13:27;;;;;;;;;;;;;;;12.56;36.99;99142.09;4472170;32;33949;-71
2022/01/06 09:15:54;;;;;;;;;;;;;;;12.41;37.15;99144.34;4468405;31;35468;-71
2022/01/06 09:18:22;;;;;;;;;;;;;;;12.89;35.74;99142.63;4471159;32;33161;-70
2022/01/06 09:20:49;;;;;;;;;;;;;;;12.16;38.07;99136.84;4473172;32;34242;-71
2022/01/06 09:23:17;;;;;;;;;;;;;;;12.12;38.28;99138.97;4472111;32;35280;-69
2022/01/06 09:25:44;;;;;;;;;;;;;;;12.89;35.91;99143.47;4471266;32;34689;-70
2022/01/06 09:28:12;;;;;;;;;;;;;;;12.57;37.11;99151.84;4471175;32;33333;-72
2022/01/06 09:30:39;;;;;;;;;;;;;;;12.67;37.10;99143.78;4463531;32;33880;-70
2022/01/06 09:33:07;;;;;;;;;;;;;;;12.47;38.46;99145.63;4470709;32;34430;-73
2022/01/06 09:35:34;;;;;;;;;;;;;;;12.08;38.91;99145.59;4471441;32;35291;-71
2022/01/06 09:38:01;;;;;;;;;;;;;;;12.27;36.71;99153.66;4477108;31;34472;-70
2022/01/06 09:40:29;;;;;;;;;;;;;;;12.38;38.73;99158.03;4472649;32;33987;-71
2022/01/06 09:42:56;;;;;;;;;;;;;;;13.00;36.09;99158.56;4469486;32;34430;-70
2022/01/06 09:45:24;;;;;;;;;;;;;;;12.59;37.33;99160.59;4469089;32;34752;-71
2022/01/06 09:47:52;;;;;;;;;;;;;;;12.07;38.58;99160.84;4473090;32;34444;-71
2022/01/06 09:50:19;;;;;;;;;;;;;;;11.83;39.40;99169.22;4470478;32;34182;-72
2022/01/06 09:52:46;;;;;;;;;;;;;;;12.23;36.90;99168.34;4476260;32;34809;-71
2022/01/06 09:55:14;;;;;;;;;;;;;;;12.87;36.39;99169.59;4477474;32;34396;-72
2022/01/06 09:57:46;;;;;;;;;;;;;;;12.57;36.80;99163.41;4471635;32;32796;-72
2022/01/06 10:00:14;;;;;;;;;;;;;;;12.08;37.81;99156.31;4473140;32;34189;-71
2022/01/06 10:02:41;;;;;;;;;;;;;;;11.73;39.27;99156.78;4473194;32;33565;-72
2022/01/06 10:05:09;;;;;;;;;;;;;;;12.50;37.81;99172.19;4471685;32;33287;-72
2022/01/06 10:07:37;;;;;;;;;;;;;;;12.68;36.48;99177.69;4464839;32;33702;-70
2022/01/06 10:10:09;;;;;;;;;;;;;;;12.37;37.52;99175.16;4465837;32;35183;-72
2022/01/06 10:12:39;;;;;;;;;;;;;;;10.90;39.22;99172.84;4471389;32;33418;-71
2022/01/06 10:15:17;;;;;;;;;;;;;;;12.14;37.67;99171.03;4479541;32;33372;-70
2022/01/06 10:17:45;;;;;;;;;;;;;;;12.07;37.68;99176.06;4476053;32;33795;-70
2022/01/06 10:20:14;;;;;;;;;;;;;;;11.30;42.78;99185.53;4477764;32;34106;-71
2022/01/06 10:22:42;;;;;;;;;;;;;;;11.80;38.38;99177.53;4476995;32;34279;-70
2022/01/06 10:25:10;;;;;;;;;;;;;;;11.45;39.44;99180.63;4468293;32;33835;-71
2022/01/06 10:27:37;;;;;;;;;;;;;;;11.32;38.80;99188.91;4468689;32;33436;-70
2022/01/06 10:30:05;;;;;;;;;;;;;;;10.90;42.01;99188.91;4468298;32;32428;-71
2022/01/06 10:32:32;;;;;;;;;;;;;;;11.26;39.43;99193.94;4477052;32;35264;-71
2022/01/06 10:35:03;;;;;;;;;;;;;;;11.61;39.58;99194.38;4475382;32;34719;-69
2022/01/06 10:37:30;;;;;;;;;;;;;;;12.10;39.33;99186.53;4478997;32;32062;-69
2022/01/06 10:39:58;;;;;;;;;;;;;;;11.82;40.48;99193.50;4472649;32;33944;-69
2022/01/06 10:42:27;;;;;;;;;;;;;;;11.19;40.02;99207.00;4476849;32;33448;-69
2022/01/06 10:44:57;;;;;;;;;;;;;;;11.98;39.55;99201.06;4477740;32;34241;-70
2022/01/06 10:47:31;;;;;;;;;;;;;;;11.82;38.87;99194.34;4479670;32;33716;-71
2022/01/06 10:50:13;;;;;;;;;;;;;;;11.25;39.28;99205.63;4476140;32;34325;-74
2022/01/06 10:52:41;;;;;;;;;;;;;;;11.16;39.96;99205.44;4478067;32;33828;-73
2022/01/06 10:55:12;;;;;;;;;;;;;;;10.89;42.04;99200.63;4478842;32;34473;-74
2022/01/06 10:57:56;;;;;;;;;;;;;;;11.22;39.97;99213.94;4474226;32;34157;-71
2022/01/06 11:00:28;;;;;;;;;;;;;;;10.37;43.27;99214.81;4473509;32;34327;-73
2022/01/06 11:03:08;;;;;;;;;;;;;;;9.50;44.04;99215.53;4473919;32;34570;-72
2022/01/06 11:05:36;;;;;;;;;;;;;;;10.24;41.95;99214.94;4472809;32;33856;-71
2022/01/06 11:08:04;;;;;;;;;;;;;;;10.63;41.55;99218.03;4470927;32;33495;-71
2022/01/06 11:10:35;;;;;;;;;;;;;;;10.34;45.14;99215.94;4466762;32;33964;-69
2022/01/06 11:13:06;;;;;;;;;;;;;;;10.32;42.93;99220.53;4473549;32;33783;-71
2022/01/06 11:15:33;;;;;;;;;;;;;;;10.58;41.46;99220.22;4475648;32;33360;-72
2022/01/06 11:18:01;;;;;;;;;;;;;;;10.28;42.39;99227.12;4475003;32;33713;-74
2022/01/06 11:20:28;;;;;;;;;;;;;;;9.76;44.48;99242.00;4474465;32;32903;-71
2022/01/06 11:22:57;;;;;;;;;;;;;;;9.82;44.03;99240.63;4464936;32;32828;-71
2022/01/06 11:25:31;;;;;;;;;;;;;;;10.21;42.93;99236.59;4475327;32;34621;-73
2022/01/06 11:28:06;;;;;;;;;;;;;;;10.41;41.92;99235.00;4473987;32;34600;-72
2022/01/06 11:30:43;;;;;;;;;;;;;;;10.60;43.66;99235.19;4468735;32;34705;-70
2022/01/06 11:33:11;;;;;;;;;;;;;;;10.88;40.94;99233.72;4470346;32;34073;-71
2022/01/06 11:35:48;;;;;;;;;;;;;;;10.79;41.66;99236.34;4481520;32;34616;-72
2022/01/06 11:38:19;;;;;;;;;;;;;;;10.65;44.03;99240.97;4471397;32;33575;-72
2022/01/06 11:40:47;;;;;;;;;;;;;;;10.80;42.34;99232.66;4474808;32;33264;-72
2022/01/06 11:43:15;;;;;;;;;;;;;;;10.00;43.01;99233.84;4476784;32;34285;-73
2022/01/06 11:45:43;;;;;;;;;;;;;;;10.00;43.27;99234.69;4481879;32;35147;-71
2022/01/06 11:48:13;;;;;;;;;;;;;;;10.09;43.87;99242.94;4471890;32;33704;-72
2022/01/06 11:50:42;;;;;;;;;;;;;;;10.80;41.37;99246.91;4480224;32;33702;-71
2022/01/06 11:53:09;;;;;;;;;;;;;;;10.40;42.63;99247.53;4469156;32;34122;-70
2022/01/06 11:55:38;;;;;;;;;;;;;;;10.99;41.58;99240.00;4481040;32;34400;-71
2022/01/06 11:58:14;;;;;;;;;;;;;;;10.53;42.86;99241.16;4468902;32;33728;-72
2022/01/06 12:00:53;;;;;;;;;;;;;;;10.39;40.97;99240.47;4469080;32;33021;-70
2022/01/06 12:03:20;;;;;;;;;;;;;;;10.40;41.99;99242.19;4470410;32;35537;-69
2022/01/06 12:05:49;;;;;;;;;;;;;;;10.12;42.14;99234.69;4471994;32;33650;-70
2022/01/06 12:08:16;;;;;;;;;;;;;;;9.48;44.31;99230.81;4468151;32;33731;-66
2022/01/06 12:10:45;;;;;;;;;;;;;;;10.26;42.04;99234.41;4471888;32;33953;-69
2022/01/06 12:13:13;;;;;;;;;;;;;;;10.54;41.23;99225.00;4468832;32;34385;-72
2022/01/06 12:15:48;;;;;;;;;;;;;;;9.34;42.81;99239.03;4468360;32;36733;-70
2022/01/06 12:18:20;;;;;;;;;;;;;;;10.15;42.18;99242.44;4467590;32;33440;-70
2022/01/06 12:20:48;;;;;;;;;;;;;;;10.25;42.12;99238.06;4472261;32;34440;-68
2022/01/06 12:23:16;;;;;;;;;;;;;;;10.09;42.81;99249.13;4471574;32;35429;-72
2022/01/06 12:25:57;;;;;;;;;;;;;;;9.81;44.12;99263.84;4472894;32;34580;-71
2022/01/06 12:28:25;;;;;;;;;;;;;;;9.86;44.36;99260.84;4473216;32;31918;-71
2022/01/06 12:30:59;;;;;;;;;;;;;;;10.59;41.11;99262.91;4473430;32;33627;-71
2022/01/06 12:33:27;;;;;;;;;;;;;;;10.10;41.71;99256.19;4466806;32;35257;-73
2022/01/06 12:35:55;;;;;;;;;;;;;;;10.11;43.54;99265.91;4466544;32;35457;-69
2022/01/06 12:38:26;;;;;;;;;;;;;;;10.44;41.04;99274.88;4471531;32;33593;-69
2022/01/06 12:40:54;;;;;;;;;;;;;;;10.08;41.66;99273.31;4476267;32;33258;-71
2022/01/06 12:43:37;;;;;;;;;;;;;;;10.12;43.25;99277.47;4471270;32;34506;-66
2022/01/06 12:46:12;;;;;;;;;;;;;;;9.53;42.56;99281.19;4473170;31;33937;-70
2022/01/06 12:48:41;;;;;;;;;;;;;;;9.65;43.25;99290.94;4472126;32;33285;-68
2022/01/06 12:51:10;;;;;;;;;;;;;;;9.95;42.24;99289.47;4474851;31;33702;-68
2022/01/06 12:53:39;;;;;;;;;;;;;;;9.98;42.89;99291.91;4469965;32;34155;-68
2022/01/06 12:56:06;;;;;;;;;;;;;;;10.24;43.01;99298.72;4469535;32;34744;-70
2022/01/06 12:58:37;;;;;;;;;;;;;;;10.22;41.50;99305.16;4472955;31;33715;-70
2022/01/06 13:01:06;;;;;;;;;;;;;;;10.24;42.89;99301.41;4469865;32;34083;-70
2022/01/06 13:03:34;;;;;;;;;;;;;;;10.60;40.80;99299.41;4461992;32;34228;-70
2022/01/06 13:06:04;;;;;;;;;;;;;;;10.96;40.17;99311.56;4470051;32;33361;-69